Time;durP1;ratioP1;P1;durP2;ratioP2;P2;SDS_P1;SDS_P2;PMS_P1;PMS_P2;Temp;Humidity;BMP_temperature;BMP_pressure;BME280_temperature;BME280_humidity;BME280_pressure;Samples;Min_cycle;Max_cycle;Signal;HPM_P1;HPM_P2
2022/04/04 00:04:20;;;;;;;;;0.00;0.00;;;;;;;;2;261076358;261076358;-75
2022/04/04 00:13:47;;;;;;;;;0.00;0.00;;;;;;;;2;288087001;288087001;-75
2022/04/04 00:22:03;;;;;;;;;0.00;0.00;;;;;;;;2;261080285;261080285;-75
2022/04/04 00:31:30;;;;;;;;;0.00;0.00;;;;;;;;2;288084139;288084139;-75
2022/04/04 00:39:46;;;;;;;;;0.00;0.00;;;;;;;;2;261077399;261077399;-75
2022/04/04 00:49:13;;;;;;;;;0.00;0.00;;;;;;;;2;288082638;288082638;-75
2022/04/04 00:57:29;;;;;;;;;0.00;0.00;;;;;;;;2;261075350;261075350;-75
2022/04/04 01:10:16;;;;;;;;;0.00;0.00;;;;;;;;2;288086808;288086808;-75
2022/04/04 01:18:31;;;;;;;;;0.00;0.00;;;;;;;;2;261076409;261076409;-75
2022/04/04 01:28:00;;;;;;;;;0.00;0.00;;;;;;;;2;288084246;288084246;-75
2022/04/04 01:36:15;;;;;;;;;0.00;0.00;;;;;;;;2;261076454;261076454;-75
2022/04/04 01:54:17;;;;;;;;;0.00;0.00;;;;;;;;2;261075586;261075586;-75
2022/04/04 02:03:48;;;;;;;;;0.00;0.00;;;;;;;;2;288079684;288079684;-75
2022/04/04 02:12:06;;;;;;;;;0.00;0.00;;;;;;;;2;261078510;261078510;-75
2022/04/04 02:21:33;;;;;;;;;0.00;0.00;;;;;;;;2;288087414;288087414;-75
2022/04/04 02:29:49;;;;;;;;;0.00;0.00;;;;;;;;2;261076616;261076616;-75
2022/04/04 02:39:16;;;;;;;;;0.00;0.00;;;;;;;;2;288083616;288083616;-75
2022/04/04 02:47:32;;;;;;;;;0.00;0.00;;;;;;;;2;261076275;261076275;-75
2022/04/04 02:56:59;;;;;;;;;0.00;0.00;;;;;;;;2;288083786;288083786;-75
2022/04/04 03:05:15;;;;;;;;;0.00;0.00;;;;;;;;2;261075070;261075070;-74
2022/04/04 03:14:44;;;;;;;;;0.00;0.00;;;;;;;;2;288082482;288082482;-74
2022/04/04 03:23:00;;;;;;;;;0.00;0.00;;;;;;;;2;261080358;261080358;-74
2022/04/04 03:32:28;;;;;;;;;0.00;0.00;;;;;;;;2;288085048;288085048;-75
2022/04/04 03:40:44;;;;;;;;;0.00;0.00;;;;;;;;2;261077267;261077267;-75
2022/04/04 03:50:14;;;;;;;;;0.00;0.00;;;;;;;;2;288084768;288084768;-75
2022/04/04 03:58:30;;;;;;;;;0.00;0.00;;;;;;;;2;261075726;261075726;-74
2022/04/04 04:07:57;;;;;;;;;0.00;0.00;;;;;;;;2;288083689;288083689;-75
2022/04/04 04:16:13;;;;;;;;;0.00;0.00;;;;;;;;2;261075926;261075926;-75
2022/04/04 04:25:41;;;;;;;;;0.00;0.00;;;;;;;;2;288085056;288085056;-75
2022/04/04 04:33:57;;;;;;;;;0.00;0.00;;;;;;;;2;261077242;261077242;-75
2022/04/04 04:43:24;;;;;;;;;0.00;0.00;;;;;;;;2;288082678;288082678;-75
2022/04/04 04:51:41;;;;;;;;;0.00;0.00;;;;;;;;2;261077021;261077021;-75
2022/04/04 05:01:09;;;;;;;;;0.00;0.00;;;;;;;;2;288083208;288083208;-75
2022/04/04 05:09:24;;;;;;;;;0.00;0.00;;;;;;;;2;261077452;261077452;-75
2022/04/04 05:18:52;;;;;;;;;0.00;0.00;;;;;;;;2;288086494;288086494;-76
2022/04/04 05:27:08;;;;;;;;;0.00;0.00;;;;;;;;2;261078509;261078509;-76
2022/04/04 05:36:35;;;;;;;;;0.00;0.00;;;;;;;;2;288082622;288082622;-77
2022/04/04 05:44:51;;;;;;;;;0.00;0.00;;;;;;;;2;261077448;261077448;-76
2022/04/04 05:54:18;;;;;;;;;0.00;0.00;;;;;;;;2;288081187;288081187;-76
2022/04/04 06:02:35;;;;;;;;;0.00;0.00;;;;;;;;2;261077431;261077431;-76
2022/04/04 06:12:03;;;;;;;;;0.00;0.00;;;;;;;;2;288086337;288086337;-75
2022/04/04 06:20:19;;;;;;;;;0.00;0.00;;;;;;;;2;261076077;261076077;-76
2022/04/04 06:29:47;;;;;;;;;0.00;0.00;;;;;;;;2;288083658;288083658;-76
2022/04/04 06:38:03;;;;;;;;;0.00;0.00;;;;;;;;2;261082391;261082391;-76
2022/04/04 06:47:31;;;;;;;;;0.00;0.00;;;;;;;;2;288082513;288082513;-76
2022/04/04 06:55:46;;;;;;;;;0.00;0.00;;;;;;;;2;261078556;261078556;-76
2022/04/04 07:05:14;;;;;;;;;0.00;0.00;;;;;;;;2;288087559;288087559;-76
2022/04/04 07:13:31;;;;;;;;;0.00;0.00;;;;;;;;2;261077043;261077043;-76
2022/04/04 07:22:59;;;;;;;;;0.00;0.00;;;;;;;;2;288086763;288086763;-76
2022/04/04 07:31:14;;;;;;;;;0.00;0.00;;;;;;;;2;261077023;261077023;-81
2022/04/04 07:40:42;;;;;;;;;0.00;0.00;;;;;;;;2;288086513;288086513;-80
2022/04/04 07:48:59;;;;;;;;;0.00;0.00;;;;;;;;2;261078281;261078281;-78
2022/04/04 07:58:26;;;;;;;;;0.00;0.00;;;;;;;;2;288084303;288084303;-78
2022/04/04 08:06:42;;;;;;;;;0.00;0.00;;;;;;;;2;261078205;261078205;-79
2022/04/04 08:16:10;;;;;;;;;0.00;0.00;;;;;;;;2;288083645;288083645;-80
2022/04/04 08:24:25;;;;;;;;;0.00;0.00;;;;;;;;2;261077714;261077714;-80
2022/04/04 08:33:53;;;;;;;;;0.00;0.00;;;;;;;;2;288084691;288084691;-77
2022/04/04 08:42:11;;;;;;;;;0.00;0.00;;;;;;;;2;261079615;261079615;-77
2022/04/04 08:51:40;;;;;;;;;0.00;0.00;;;;;;;;2;288085386;288085386;-83
2022/04/04 08:59:55;;;;;;;;;0.00;0.00;;;;;;;;2;261076597;261076597;-77
2022/04/04 09:09:36;;;;;;;;;0.00;0.00;;;;;;;;2;288085081;288085081;-77
2022/04/04 09:17:51;;;;;;;;;0.00;0.00;;;;;;;;2;261077475;261077475;-81
2022/04/04 09:27:29;;;;;;;;;0.00;0.00;;;;;;;;2;288084908;288084908;-77
2022/04/04 09:35:46;;;;;;;;;0.00;0.00;;;;;;;;2;261079632;261079632;-77
2022/04/04 09:45:13;;;;;;;;;0.00;0.00;;;;;;;;2;288085167;288085167;-78
2022/04/04 09:53:29;;;;;;;;;0.00;0.00;;;;;;;;2;261076780;261076780;-78
2022/04/04 10:02:58;;;;;;;;;0.00;0.00;;;;;;;;2;288086713;288086713;-78
2022/04/04 10:11:13;;;;;;;;;0.00;0.00;;;;;;;;2;261073532;261073532;-77
2022/04/04 10:20:41;;;;;;;;;0.00;0.00;;;;;;;;2;288084014;288084014;-79
2022/04/04 10:29:09;;;;;;;;;0.00;0.00;;;;;;;;2;261078826;261078826;-78
2022/04/04 10:38:38;;;;;;;;;0.00;0.00;;;;;;;;2;288087020;288087020;-77
2022/04/04 10:47:01;;;;;;;;;0.00;0.00;;;;;;;;2;261076393;261076393;-80
2022/04/04 10:56:30;;;;;;;;;0.00;0.00;;;;;;;;2;288084545;288084545;-79
2022/04/04 11:14:41;;;;;;;;;0.00;0.00;;;;;;;;2;288087354;288087354;-80
2022/04/04 11:22:58;;;;;;;;;0.00;0.00;;;;;;;;2;261078497;261078497;-80
2022/04/04 11:32:34;;;;;;;;;0.00;0.00;;;;;;;;2;288081887;288081887;-80
2022/04/04 11:40:55;;;;;;;;;0.00;0.00;;;;;;;;2;261079038;261079038;-80
2022/04/04 11:50:25;;;;;;;;;0.00;0.00;;;;;;;;2;288085975;288085975;-80
2022/04/04 11:58:54;;;;;;;;;0.00;0.00;;;;;;;;2;261074231;261074231;-79
2022/04/04 12:08:21;;;;;;;;;0.00;0.00;;;;;;;;2;288089392;288089392;-78
2022/04/04 12:16:48;;;;;;;;;0.00;0.00;;;;;;;;2;261077475;261077475;-82
2022/04/04 12:26:16;;;;;;;;;0.00;0.00;;;;;;;;2;288084882;288084882;-79
2022/04/04 12:34:32;;;;;;;;;0.00;0.00;;;;;;;;2;261082103;261082103;-79
2022/04/04 12:44:02;;;;;;;;;0.00;0.00;;;;;;;;2;288085136;288085136;-81
2022/04/04 12:52:56;;;;;;;;;0.00;0.00;;;;;;;;2;261073821;261073821;-82
2022/04/04 13:02:33;;;;;;;;;0.00;0.00;;;;;;;;2;288085933;288085933;-79
2022/04/04 13:11:06;;;;;;;;;0.00;0.00;;;;;;;;2;261077140;261077140;-82
2022/04/04 13:20:34;;;;;;;;;0.00;0.00;;;;;;;;2;288082370;288082370;-79
2022/04/04 13:28:50;;;;;;;;;0.00;0.00;;;;;;;;2;261076784;261076784;-81
2022/04/04 13:38:17;;;;;;;;;0.00;0.00;;;;;;;;2;288086749;288086749;-80
2022/04/04 13:46:33;;;;;;;;;0.00;0.00;;;;;;;;2;261076356;261076356;-80
2022/04/04 13:56:01;;;;;;;;;0.00;0.00;;;;;;;;2;288081513;288081513;-80
2022/04/04 14:04:17;;;;;;;;;0.00;0.00;;;;;;;;2;261077585;261077585;-80
2022/04/04 14:13:49;;;;;;;;;0.00;0.00;;;;;;;;2;288083171;288083171;-80
2022/04/04 14:22:05;;;;;;;;;0.00;0.00;;;;;;;;2;261076715;261076715;-80
2022/04/04 14:31:33;;;;;;;;;0.00;0.00;;;;;;;;2;288084325;288084325;-79
2022/04/04 14:39:49;;;;;;;;;0.00;0.00;;;;;;;;2;261077165;261077165;-79
2022/04/04 14:49:16;;;;;;;;;0.00;0.00;;;;;;;;2;288086818;288086818;-79
2022/04/04 14:57:32;;;;;;;;;0.00;0.00;;;;;;;;2;261075587;261075587;-78
2022/04/04 15:07:00;;;;;;;;;0.00;0.00;;;;;;;;2;288086160;288086160;-78
2022/04/04 15:15:15;;;;;;;;;0.00;0.00;;;;;;;;2;261075351;261075351;-78
2022/04/04 15:24:43;;;;;;;;;0.00;0.00;;;;;;;;2;288084045;288084045;-79
2022/04/04 15:32:58;;;;;;;;;0.00;0.00;;;;;;;;2;261077630;261077630;-79
2022/04/04 15:42:26;;;;;;;;;0.00;0.00;;;;;;;;2;288084466;288084466;-79
2022/04/04 15:50:41;;;;;;;;;0.00;0.00;;;;;;;;2;261076222;261076222;-78
2022/04/04 16:00:11;;;;;;;;;0.00;0.00;;;;;;;;2;288084092;288084092;-79
2022/04/04 16:08:26;;;;;;;;;0.00;0.00;;;;;;;;2;261077155;261077155;-78
2022/04/04 16:17:54;;;;;;;;;0.00;0.00;;;;;;;;2;288083152;288083152;-77
2022/04/04 16:26:10;;;;;;;;;0.00;0.00;;;;;;;;2;261076715;261076715;-78
2022/04/04 16:45:42;;;;;;;;;0.00;0.00;;;;;;;;177577;27;261077630;-77
2022/04/04 16:55:11;;;;;;;;;0.00;0.00;;;;;;;;2;288083717;288083717;-77
2022/04/04 17:03:26;;;;;;;;;0.00;0.00;;;;;;;;2;261075905;261075905;-79
2022/04/04 17:13:03;;;;;;;;;0.00;0.00;;;;;;;;2;288085250;288085250;-80
2022/04/04 17:21:23;;;;;;;;;0.00;0.00;;;;;;;;2;261077848;261077848;-80
2022/04/04 17:30:51;;;;;;;;;0.00;0.00;;;;;;;;2;288084715;288084715;-78
2022/04/04 17:39:07;;;;;;;;;0.00;0.00;;;;;;;;2;261077190;261077190;-79
2022/04/04 17:48:34;;;;;;;;;0.00;0.00;;;;;;;;2;288083494;288083494;-78
2022/04/04 17:56:50;;;;;;;;;0.00;0.00;;;;;;;;2;261077840;261077840;-78
2022/04/04 18:06:18;;;;;;;;;0.00;0.00;;;;;;;;2;288086994;288086994;-78
2022/04/04 18:14:34;;;;;;;;;0.00;0.00;;;;;;;;2;261077596;261077596;-78
2022/04/04 18:24:02;;;;;;;;;0.00;0.00;;;;;;;;2;288085506;288085506;-77
2022/04/04 18:32:20;;;;;;;;;0.00;0.00;;;;;;;;2;261078204;261078204;-77
2022/04/04 18:41:47;;;;;;;;;0.00;0.00;;;;;;;;2;288087083;288087083;-79
2022/04/04 18:50:05;;;;;;;;;0.00;0.00;;;;;;;;2;261078262;261078262;-79
2022/04/04 18:59:32;;;;;;;;;0.00;0.00;;;;;;;;2;288088080;288088080;-78
2022/04/04 19:07:48;;;;;;;;;0.00;0.00;;;;;;;;2;261076721;261076721;-79
2022/04/04 19:17:15;;;;;;;;;0.00;0.00;;;;;;;;2;288087370;288087370;-79
2022/04/04 19:25:31;;;;;;;;;0.00;0.00;;;;;;;;2;261076167;261076167;-78
2022/04/04 19:34:58;;;;;;;;;0.00;0.00;;;;;;;;2;288084953;288084953;-79
2022/04/04 19:43:16;;;;;;;;;0.00;0.00;;;;;;;;2;261076043;261076043;-78
2022/04/04 19:52:52;;;;;;;;;0.00;0.00;;;;;;;;2;288085823;288085823;-80
2022/04/04 20:01:08;;;;;;;;;0.00;0.00;;;;;;;;2;261076920;261076920;-80
2022/04/04 20:10:36;;;;;;;;;0.00;0.00;;;;;;;;2;288086525;288086525;-78
2022/04/04 20:18:52;;;;;;;;;0.00;0.00;;;;;;;;2;261078476;261078476;-78
2022/04/04 20:28:20;;;;;;;;;0.00;0.00;;;;;;;;2;288084369;288084369;-80
2022/04/04 20:36:35;;;;;;;;;0.00;0.00;;;;;;;;2;261076607;261076607;-78
2022/04/04 20:46:04;;;;;;;;;0.00;0.00;;;;;;;;2;288092232;288092232;-78
2022/04/04 20:54:19;;;;;;;;;0.00;0.00;;;;;;;;2;261078362;261078362;-79
2022/04/04 21:03:47;;;;;;;;;0.00;0.00;;;;;;;;2;288086880;288086880;-79
2022/04/04 21:12:02;;;;;;;;;0.00;0.00;;;;;;;;2;261077400;261077400;-78
2022/04/04 21:21:31;;;;;;;;;0.00;0.00;;;;;;;;2;288083644;288083644;-78
2022/04/04 21:29:46;;;;;;;;;0.00;0.00;;;;;;;;2;261077165;261077165;-77
2022/04/04 21:39:14;;;;;;;;;0.00;0.00;;;;;;;;2;288084830;288084830;-77
2022/04/04 21:47:29;;;;;;;;;0.00;0.00;;;;;;;;2;261077210;261077210;-77
2022/04/04 21:56:57;;;;;;;;;0.00;0.00;;;;;;;;2;288082814;288082814;-77
2022/04/04 22:05:13;;;;;;;;;0.00;0.00;;;;;;;;2;261080928;261080928;-77
2022/04/04 22:14:41;;;;;;;;;0.00;0.00;;;;;;;;2;288084606;288084606;-77
2022/04/04 22:22:57;;;;;;;;;0.00;0.00;;;;;;;;2;261077821;261077821;-77
2022/04/04 22:32:24;;;;;;;;;0.00;0.00;;;;;;;;2;288084493;288084493;-78
2022/04/04 22:40:40;;;;;;;;;0.00;0.00;;;;;;;;2;261077031;261077031;-78
2022/04/04 22:50:08;;;;;;;;;0.00;0.00;;;;;;;;2;288082562;288082562;-77
2022/04/04 22:58:23;;;;;;;;;0.00;0.00;;;;;;;;2;261079304;261079304;-77
2022/04/04 23:07:51;;;;;;;;;0.00;0.00;;;;;;;;2;288084649;288084649;-77
2022/04/04 23:16:07;;;;;;;;;0.00;0.00;;;;;;;;2;261074212;261074212;-77
2022/04/04 23:25:34;;;;;;;;;0.00;0.00;;;;;;;;2;288082216;288082216;-77
2022/04/04 23:33:51;;;;;;;;;0.00;0.00;;;;;;;;2;261076165;261076165;-78
2022/04/04 23:43:19;;;;;;;;;0.00;0.00;;;;;;;;2;288084560;288084560;-77
2022/04/04 23:51:34;;;;;;;;;0.00;0.00;;;;;;;;2;261076172;261076172;-77
